sensor_id;sensor_type;location;lat;lon;timestamp;P1;durP1;ratioP1;P2;durP2;ratioP2
595;SDS011;19946;49.306;11.350;2023-02-23T06:20:19;17.80;;;17.20;;
595;SDS011;19946;49.306;11.350;2023-02-23T06:49:42;18.03;;;17.20;;
595;SDS011;19946;49.306;11.350;2023-02-23T06:52:43;16.73;;;16.33;;
595;SDS011;19946;49.306;11.350;2023-02-23T06:55:50;18.63;;;17.67;;
595;SDS011;19946;49.306;11.350;2023-02-23T07:15:16;16.10;;;15.60;;
595;SDS011;19946;49.306;11.350;2023-02-23T07:51:08;7.43;;;7.23;;
595;SDS011;19946;49.306;11.350;2023-02-23T08:10:40;6.90;;;6.80;;
595;SDS011;19946;49.306;11.350;2023-02-23T08:59:44;6.10;;;6.00;;
595;SDS011;19946;49.306;11.350;2023-02-23T09:02:45;4.10;;;4.10;;
595;SDS011;19946;49.306;11.350;2023-02-23T09:48:44;5.60;;;5.60;;
595;SDS011;19946;49.306;11.350;2023-02-23T09:51:46;4.87;;;4.87;;
595;SDS011;19946;49.306;11.350;2023-02-23T09:54:50;4.73;;;4.73;;
595;SDS011;19946;49.306;11.350;2023-02-23T09:57:51;5.87;;;5.77;;
595;SDS011;19946;49.306;11.350;2023-02-23T10:01:17;6.07;;;5.97;;
595;SDS011;19946;49.306;11.350;2023-02-23T10:04:50;5.10;;;5.10;;
595;SDS011;19946;49.306;11.350;2023-02-23T10:08:02;5.97;;;5.87;;
595;SDS011;19946;49.306;11.350;2023-02-23T10:21:25;4.80;;;4.80;;
595;SDS011;19946;49.306;11.350;2023-02-23T10:24:38;4.90;;;4.90;;
595;SDS011;19946;49.306;11.350;2023-02-23T10:27:55;5.03;;;5.03;;
595;SDS011;19946;49.306;11.350;2023-02-23T10:31:18;5.67;;;5.67;;
595;SDS011;19946;49.306;11.350;2023-02-23T11:10:33;6.10;;;6.00;;
595;SDS011;19946;49.306;11.350;2023-02-23T11:20:39;4.40;;;4.40;;
595;SDS011;19946;49.306;11.350;2023-02-23T11:33:38;4.20;;;4.20;;
595;SDS011;19946;49.306;11.350;2023-02-23T11:36:39;5.10;;;5.10;;
595;SDS011;19946;49.306;11.350;2023-02-23T12:16:04;2.67;;;2.67;;
595;SDS011;19946;49.306;11.350;2023-02-23T13:20:42;4.10;;;4.10;;
595;SDS011;19946;49.306;11.350;2023-02-23T15:06:23;2.43;;;2.43;;
595;SDS011;19946;49.306;11.350;2023-02-23T15:32:29;6.60;;;6.50;;
595;SDS011;19946;49.306;11.350;2023-02-23T15:38:46;9.80;;;9.60;;
595;SDS011;19946;49.306;11.350;2023-02-23T15:41:51;7.73;;;7.43;;
595;SDS011;19946;49.306;11.350;2023-02-23T15:44:52;8.93;;;8.73;;
595;SDS011;19946;49.306;11.350;2023-02-23T15:47:56;11.73;;;11.53;;
595;SDS011;19946;49.306;11.350;2023-02-23T15:51:02;13.77;;;13.47;;
595;SDS011;19946;49.306;11.350;2023-02-23T15:57:32;16.30;;;14.87;;
595;SDS011;19946;49.306;11.350;2023-02-23T16:00:55;14.07;;;12.80;;
595;SDS011;19946;49.306;11.350;2023-02-23T16:07:34;19.60;;;19.00;;
595;SDS011;19946;49.306;11.350;2023-02-23T16:14:22;17.80;;;17.30;;
595;SDS011;19946;49.306;11.350;2023-02-23T16:21:05;10.93;;;10.60;;
595;SDS011;19946;49.306;11.350;2023-02-23T16:24:30;15.57;;;14.90;;
595;SDS011;19946;49.306;11.350;2023-02-23T16:28:06;16.30;;;15.80;;
595;SDS011;19946;49.306;11.350;2023-02-23T16:41:58;26.37;;;25.20;;
595;SDS011;19946;49.306;11.350;2023-02-23T16:45:30;27.10;;;26.30;;
595;SDS011;19946;49.306;11.350;2023-02-23T16:51:53;25.70;;;25.10;;
595;SDS011;19946;49.306;11.350;2023-02-23T16:54:55;25.00;;;24.40;;
595;SDS011;19946;49.306;11.350;2023-02-23T16:57:57;23.37;;;22.77;;
595;SDS011;19946;49.306;11.350;2023-02-23T17:01:09;18.30;;;17.90;;
595;SDS011;19946;49.306;11.350;2023-02-23T17:04:13;32.33;;;31.43;;
595;SDS011;19946;49.306;11.350;2023-02-23T17:07:19;25.80;;;25.17;;
595;SDS011;19946;49.306;11.350;2023-02-23T17:10:21;20.70;;;20.20;;
595;SDS011;19946;49.306;11.350;2023-02-23T17:13:28;20.80;;;20.30;;
595;SDS011;19946;49.306;11.350;2023-02-23T17:16:34;17.80;;;17.40;;
595;SDS011;19946;49.306;11.350;2023-02-23T17:19:34;22.77;;;22.20;;
595;SDS011;19946;49.306;11.350;2023-02-23T17:22:35;23.37;;;22.77;;
595;SDS011;19946;49.306;11.350;2023-02-23T17:25:37;19.87;;;19.37;;
595;SDS011;19946;49.306;11.350;2023-02-23T17:28:39;20.27;;;19.77;;
595;SDS011;19946;49.306;11.350;2023-02-23T17:31:40;21.90;;;21.40;;
595;SDS011;19946;49.306;11.350;2023-02-23T17:34:41;24.40;;;23.80;;
595;SDS011;19946;49.306;11.350;2023-02-23T17:37:42;26.93;;;26.23;;
595;SDS011;19946;49.306;11.350;2023-02-23T17:40:43;16.60;;;16.20;;
595;SDS011;19946;49.306;11.350;2023-02-23T17:43:44;12.30;;;12.10;;
595;SDS011;19946;49.306;11.350;2023-02-23T17:46:46;10.40;;;10.20;;
595;SDS011;19946;49.306;11.350;2023-02-23T17:49:46;12.77;;;12.57;;
595;SDS011;19946;49.306;11.350;2023-02-23T17:52:50;27.40;;;26.70;;
595;SDS011;19946;49.306;11.350;2023-02-23T17:55:52;26.10;;;25.40;;
595;SDS011;19946;49.306;11.350;2023-02-23T17:58:53;27.57;;;26.87;;
595;SDS011;19946;49.306;11.350;2023-02-23T18:01:54;24.43;;;23.83;;
595;SDS011;19946;49.306;11.350;2023-02-23T18:04:55;23.07;;;22.47;;
595;SDS011;19946;49.306;11.350;2023-02-23T18:07:56;20.30;;;19.80;;
595;SDS011;19946;49.306;11.350;2023-02-23T18:10:58;14.27;;;13.97;;
595;SDS011;19946;49.306;11.350;2023-02-23T18:14:01;18.20;;;17.80;;
595;SDS011;19946;49.306;11.350;2023-02-23T18:17:03;16.17;;;15.87;;
595;SDS011;19946;49.306;11.350;2023-02-23T18:20:05;16.27;;;15.90;;
595;SDS011;19946;49.306;11.350;2023-02-23T18:23:07;18.83;;;18.43;;
595;SDS011;19946;49.306;11.350;2023-02-23T18:26:14;26.70;;;26.00;;
595;SDS011;19946;49.306;11.350;2023-02-23T18:29:17;22.93;;;22.33;;
595;SDS011;19946;49.306;11.350;2023-02-23T18:32:18;27.33;;;26.63;;
595;SDS011;19946;49.306;11.350;2023-02-23T18:35:19;18.00;;;17.60;;
595;SDS011;19946;49.306;11.350;2023-02-23T18:38:21;22.10;;;21.60;;
595;SDS011;19946;49.306;11.350;2023-02-23T18:41:23;23.80;;;23.20;;
595;SDS011;19946;49.306;11.350;2023-02-23T18:44:30;25.97;;;25.27;;
595;SDS011;19946;49.306;11.350;2023-02-23T18:47:31;27.37;;;26.67;;
595;SDS011;19946;49.306;11.350;2023-02-23T18:50:32;22.23;;;21.73;;
595;SDS011;19946;49.306;11.350;2023-02-23T18:53:34;23.40;;;22.80;;
595;SDS011;19946;49.306;11.350;2023-02-23T18:56:37;23.10;;;22.50;;
595;SDS011;19946;49.306;11.350;2023-02-23T18:59:39;25.97;;;25.30;;
595;SDS011;19946;49.306;11.350;2023-02-23T19:02:41;27.90;;;27.20;;
595;SDS011;19946;49.306;11.350;2023-02-23T19:05:43;21.23;;;20.73;;
595;SDS011;19946;49.306;11.350;2023-02-23T19:08:50;25.20;;;24.60;;
595;SDS011;19946;49.306;11.350;2023-02-23T19:11:55;19.93;;;19.43;;
595;SDS011;19946;49.306;11.350;2023-02-23T19:14:56;22.20;;;21.63;;
595;SDS011;19946;49.306;11.350;2023-02-23T19:17:57;27.27;;;26.57;;
595;SDS011;19946;49.306;11.350;2023-02-23T19:21:01;26.50;;;25.80;;
595;SDS011;19946;49.306;11.350;2023-02-23T19:24:14;18.10;;;17.70;;
595;SDS011;19946;49.306;11.350;2023-02-23T19:27:15;14.37;;;14.07;;
595;SDS011;19946;49.306;11.350;2023-02-23T19:30:17;25.30;;;24.70;;
595;SDS011;19946;49.306;11.350;2023-02-23T19:33:18;25.43;;;24.83;;
595;SDS011;19946;49.306;11.350;2023-02-23T19:36:20;27.73;;;27.03;;
595;SDS011;19946;49.306;11.350;2023-02-23T19:39:22;25.47;;;24.87;;
595;SDS011;19946;49.306;11.350;2023-02-23T19:42:24;25.83;;;25.20;;
595;SDS011;19946;49.306;11.350;2023-02-23T19:45:26;22.97;;;22.37;;
595;SDS011;19946;49.306;11.350;2023-02-23T19:48:26;19.73;;;19.23;;
595;SDS011;19946;49.306;11.350;2023-02-23T19:51:29;20.17;;;19.67;;
595;SDS011;19946;49.306;11.350;2023-02-23T19:54:31;20.43;;;19.93;;
595;SDS011;19946;49.306;11.350;2023-02-23T19:57:36;23.07;;;22.47;;
595;SDS011;19946;49.306;11.350;2023-02-23T20:00:37;26.03;;;25.37;;
595;SDS011;19946;49.306;11.350;2023-02-23T20:03:39;28.20;;;27.50;;
595;SDS011;19946;49.306;11.350;2023-02-23T20:06:43;21.93;;;21.43;;
595;SDS011;19946;49.306;11.350;2023-02-23T20:09:51;22.80;;;22.27;;
595;SDS011;19946;49.306;11.350;2023-02-23T20:12:54;15.70;;;15.40;;
595;SDS011;19946;49.306;11.350;2023-02-23T20:19:14;18.97;;;18.57;;
595;SDS011;19946;49.306;11.350;2023-02-23T20:22:19;22.43;;;21.93;;
595;SDS011;19946;49.306;11.350;2023-02-23T20:25:21;26.77;;;26.07;;
595;SDS011;19946;49.306;11.350;2023-02-23T20:28:23;27.80;;;27.10;;
595;SDS011;19946;49.306;11.350;2023-02-23T20:31:39;26.50;;;25.80;;
595;SDS011;19946;49.306;11.350;2023-02-23T20:34:50;29.10;;;27.97;;
595;SDS011;19946;49.306;11.350;2023-02-23T20:37:52;26.93;;;26.20;;
595;SDS011;19946;49.306;11.350;2023-02-23T20:41:00;22.73;;;22.20;;
595;SDS011;19946;49.306;11.350;2023-02-23T20:44:06;15.20;;;14.90;;
595;SDS011;19946;49.306;11.350;2023-02-23T20:47:10;17.43;;;17.03;;
595;SDS011;19946;49.306;11.350;2023-02-23T20:50:13;17.13;;;16.73;;
595;SDS011;19946;49.306;11.350;2023-02-23T20:53:14;13.93;;;13.63;;
595;SDS011;19946;49.306;11.350;2023-02-23T20:56:16;20.17;;;19.67;;
595;SDS011;19946;49.306;11.350;2023-02-23T20:59:20;19.80;;;19.30;;
595;SDS011;19946;49.306;11.350;2023-02-23T21:02:47;20.00;;;19.50;;
595;SDS011;19946;49.306;11.350;2023-02-23T21:05:56;21.53;;;21.03;;
595;SDS011;19946;49.306;11.350;2023-02-23T21:08:56;20.90;;;20.40;;
595;SDS011;19946;49.306;11.350;2023-02-23T21:12:16;21.70;;;21.20;;
595;SDS011;19946;49.306;11.350;2023-02-23T21:15:17;26.47;;;25.77;;
595;SDS011;19946;49.306;11.350;2023-02-23T21:18:20;28.87;;;28.13;;
595;SDS011;19946;49.306;11.350;2023-02-23T21:21:44;27.90;;;27.20;;
595;SDS011;19946;49.306;11.350;2023-02-23T21:25:03;24.73;;;24.13;;
595;SDS011;19946;49.306;11.350;2023-02-23T21:28:05;26.37;;;25.67;;
595;SDS011;19946;49.306;11.350;2023-02-23T21:31:36;24.57;;;23.97;;
595;SDS011;19946;49.306;11.350;2023-02-23T21:34:58;26.50;;;25.80;;
595;SDS011;19946;49.306;11.350;2023-02-23T21:38:24;21.40;;;20.90;;
595;SDS011;19946;49.306;11.350;2023-02-23T21:41:54;22.37;;;21.87;;
595;SDS011;19946;49.306;11.350;2023-02-23T21:44:55;19.10;;;18.70;;
595;SDS011;19946;49.306;11.350;2023-02-23T21:47:55;20.77;;;20.27;;
595;SDS011;19946;49.306;11.350;2023-02-23T21:51:03;24.23;;;23.63;;
595;SDS011;19946;49.306;11.350;2023-02-23T21:54:13;24.10;;;23.50;;
595;SDS011;19946;49.306;11.350;2023-02-23T21:57:17;24.60;;;24.00;;
595;SDS011;19946;49.306;11.350;2023-02-23T22:00:21;24.23;;;23.63;;
595;SDS011;19946;49.306;11.350;2023-02-23T22:03:23;28.00;;;27.30;;
595;SDS011;19946;49.306;11.350;2023-02-23T22:06:27;31.57;;;30.77;;
595;SDS011;19946;49.306;11.350;2023-02-23T22:09:31;32.90;;;32.00;;
595;SDS011;19946;49.306;11.350;2023-02-23T22:12:33;31.90;;;31.10;;
595;SDS011;19946;49.306;11.350;2023-02-23T22:15:34;31.80;;;31.00;;
595;SDS011;19946;49.306;11.350;2023-02-23T22:18:35;34.40;;;33.50;;
595;SDS011;19946;49.306;11.350;2023-02-23T22:21:38;34.90;;;34.00;;
595;SDS011;19946;49.306;11.350;2023-02-23T22:24:46;35.60;;;34.60;;
595;SDS011;19946;49.306;11.350;2023-02-23T22:27:50;36.37;;;35.37;;
595;SDS011;19946;49.306;11.350;2023-02-23T22:30:52;33.07;;;32.17;;
595;SDS011;19946;49.306;11.350;2023-02-23T22:33:54;32.00;;;31.20;;
595;SDS011;19946;49.306;11.350;2023-02-23T22:36:55;32.20;;;31.37;;
595;SDS011;19946;49.306;11.350;2023-02-23T22:39:56;33.43;;;32.53;;
595;SDS011;19946;49.306;11.350;2023-02-23T22:42:58;31.27;;;30.47;;
595;SDS011;19946;49.306;11.350;2023-02-23T22:46:00;31.00;;;30.20;;
595;SDS011;19946;49.306;11.350;2023-02-23T22:49:01;33.80;;;32.90;;
595;SDS011;19946;49.306;11.350;2023-02-23T22:52:01;33.27;;;32.37;;
595;SDS011;19946;49.306;11.350;2023-02-23T22:55:02;32.30;;;31.40;;
595;SDS011;19946;49.306;11.350;2023-02-23T22:58:03;32.70;;;31.80;;
595;SDS011;19946;49.306;11.350;2023-02-23T23:01:09;27.27;;;26.57;;
595;SDS011;19946;49.306;11.350;2023-02-23T23:04:10;26.43;;;25.73;;
595;SDS011;19946;49.306;11.350;2023-02-23T23:07:11;20.45;;;19.95;;
595;SDS011;19946;49.306;11.350;2023-02-23T23:10:13;19.87;;;19.37;;
595;SDS011;19946;49.306;11.350;2023-02-23T23:13:15;15.60;;;15.30;;
595;SDS011;19946;49.306;11.350;2023-02-23T23:16:18;16.03;;;15.73;;
595;SDS011;19946;49.306;11.350;2023-02-23T23:19:27;16.50;;;16.10;;
595;SDS011;19946;49.306;11.350;2023-02-23T23:22:37;24.70;;;24.10;;
595;SDS011;19946;49.306;11.350;2023-02-23T23:25:38;24.00;;;23.40;;
595;SDS011;19946;49.306;11.350;2023-02-23T23:28:45;23.67;;;23.07;;
595;SDS011;19946;49.306;11.350;2023-02-23T23:31:48;24.43;;;23.83;;
595;SDS011;19946;49.306;11.350;2023-02-23T23:34:49;25.40;;;24.80;;
595;SDS011;19946;49.306;11.350;2023-02-23T23:37:50;24.60;;;24.00;;
595;SDS011;19946;49.306;11.350;2023-02-23T23:40:51;24.20;;;23.60;;
595;SDS011;19946;49.306;11.350;2023-02-23T23:43:53;16.13;;;15.83;;
595;SDS011;19946;49.306;11.350;2023-02-23T23:46:58;18.20;;;17.80;;
595;SDS011;19946;49.306;11.350;2023-02-23T23:50:04;26.37;;;25.57;;
595;SDS011;19946;49.306;11.350;2023-02-23T23:53:09;26.70;;;26.00;;
595;SDS011;19946;49.306;11.350;2023-02-23T23:56:10;24.93;;;24.33;;
595;SDS011;19946;49.306;11.350;2023-02-23T23:59:13;27.60;;;26.83;;
